sensor_id;sensor_type;location;lat;lon;timestamp;pressure;altitude;pressure_sealevel;temperature;humidity
57668;BME280;43499;52.366;12.912;2022-12-07T00:00:55;100992.31;;;0.21;100.00
57668;BME280;43499;52.366;12.912;2022-12-07T00:01:56;100997.13;;;0.25;100.00
57668;BME280;43499;52.366;12.912;2022-12-07T00:02:57;100984.88;;;0.17;100.00
57668;BME280;43499;52.366;12.912;2022-12-07T00:04:00;101030.25;;;0.42;100.00
57668;BME280;43499;52.366;12.912;2022-12-07T00:05:05;100995.78;;;0.14;100.00
57668;BME280;43499;52.366;12.912;2022-12-07T00:06:07;100981.56;;;0.10;100.00
57668;BME280;43499;52.366;12.912;2022-12-07T00:07:09;101030.56;;;0.30;100.00
57668;BME280;43499;52.366;12.912;2022-12-07T00:08:10;100969.44;;;-0.04;100.00
57668;BME280;43499;52.366;12.912;2022-12-07T00:09:16;101035.00;;;0.32;100.00
57668;BME280;43499;52.366;12.912;2022-12-07T00:10:17;101031.13;;;0.28;100.00
57668;BME280;43499;52.366;12.912;2022-12-07T00:11:21;101032.06;;;0.28;100.00
57668;BME280;43499;52.366;12.912;2022-12-07T00:12:22;100969.41;;;-0.11;100.00
57668;BME280;43499;52.366;12.912;2022-12-07T00:13:23;101007.72;;;0.06;100.00
57668;BME280;43499;52.366;12.912;2022-12-07T00:14:24;101018.25;;;0.08;100.00
57668;BME280;43499;52.366;12.912;2022-12-07T00:15:26;101034.41;;;0.20;100.00
57668;BME280;43499;52.366;12.912;2022-12-07T00:16:29;101030.00;;;0.26;100.00
57668;BME280;43499;52.366;12.912;2022-12-07T00:17:30;100995.94;;;0.08;100.00
57668;BME280;43499;52.366;12.912;2022-12-07T00:18:32;100980.56;;;0.03;100.00
57668;BME280;43499;52.366;12.912;2022-12-07T00:19:34;101008.34;;;0.18;100.00
57668;BME280;43499;52.366;12.912;2022-12-07T00:20:35;100959.25;;;-0.09;100.00
57668;BME280;43499;52.366;12.912;2022-12-07T00:21:36;100972.81;;;0.03;100.00
57668;BME280;43499;52.366;12.912;2022-12-07T00:22:37;100960.38;;;-0.07;100.00
57668;BME280;43499;52.366;12.912;2022-12-07T00:23:39;101015.56;;;0.21;100.00
57668;BME280;43499;52.366;12.912;2022-12-07T00:24:40;100968.56;;;0.03;100.00
57668;BME280;43499;52.366;12.912;2022-12-07T00:25:41;100992.97;;;0.12;100.00
57668;BME280;43499;52.366;12.912;2022-12-07T00:26:42;100990.41;;;0.12;100.00
57668;BME280;43499;52.366;12.912;2022-12-07T00:27:44;100996.69;;;0.14;100.00
57668;BME280;43499;52.366;12.912;2022-12-07T00:28:50;101012.69;;;0.32;100.00
57668;BME280;43499;52.366;12.912;2022-12-07T00:29:51;100993.44;;;0.23;100.00
57668;BME280;43499;52.366;12.912;2022-12-07T00:30:59;100977.09;;;0.09;100.00
57668;BME280;43499;52.366;12.912;2022-12-07T00:32:00;100979.53;;;0.15;100.00
57668;BME280;43499;52.366;12.912;2022-12-07T00:33:02;101006.94;;;0.27;100.00
57668;BME280;43499;52.366;12.912;2022-12-07T00:34:03;100958.78;;;0.01;100.00
57668;BME280;43499;52.366;12.912;2022-12-07T00:35:04;101012.69;;;0.32;100.00
57668;BME280;43499;52.366;12.912;2022-12-07T00:36:08;100982.69;;;0.20;100.00
57668;BME280;43499;52.366;12.912;2022-12-07T00:37:10;100971.97;;;0.17;100.00
57668;BME280;43499;52.366;12.912;2022-12-07T00:38:11;100970.69;;;0.20;100.00
57668;BME280;43499;52.366;12.912;2022-12-07T00:39:12;101001.63;;;0.40;100.00
57668;BME280;43499;52.366;12.912;2022-12-07T00:40:13;100976.44;;;0.25;100.00
57668;BME280;43499;52.366;12.912;2022-12-07T00:41:22;100976.41;;;0.18;100.00
57668;BME280;43499;52.366;12.912;2022-12-07T00:42:23;100958.66;;;0.13;100.00
57668;BME280;43499;52.366;12.912;2022-12-07T00:43:25;101004.22;;;0.40;100.00
57668;BME280;43499;52.366;12.912;2022-12-07T00:44:26;100999.59;;;0.38;100.00
57668;BME280;43499;52.366;12.912;2022-12-07T00:45:27;100998.50;;;0.43;100.00
57668;BME280;43499;52.366;12.912;2022-12-07T00:46:29;100995.19;;;0.44;100.00
57668;BME280;43499;52.366;12.912;2022-12-07T00:47:30;100970.34;;;0.24;100.00
57668;BME280;43499;52.366;12.912;2022-12-07T00:48:31;100964.38;;;0.18;100.00
57668;BME280;43499;52.366;12.912;2022-12-07T00:49:32;100960.72;;;0.16;100.00
57668;BME280;43499;52.366;12.912;2022-12-07T00:50:33;100997.19;;;0.32;100.00
57668;BME280;43499;52.366;12.912;2022-12-07T00:51:34;101000.13;;;0.35;100.00
57668;BME280;43499;52.366;12.912;2022-12-07T00:52:35;100998.47;;;0.36;100.00
57668;BME280;43499;52.366;12.912;2022-12-07T00:53:37;100996.63;;;0.35;100.00
57668;BME280;43499;52.366;12.912;2022-12-07T00:54:39;101002.53;;;0.34;100.00
57668;BME280;43499;52.366;12.912;2022-12-07T00:55:41;100971.41;;;0.19;100.00
57668;BME280;43499;52.366;12.912;2022-12-07T00:56:42;100936.06;;;-0.02;100.00
57668;BME280;43499;52.366;12.912;2022-12-07T00:57:43;100949.72;;;-0.03;100.00
57668;BME280;43499;52.366;12.912;2022-12-07T00:59:02;100949.34;;;0.01;100.00
57668;BME280;43499;52.366;12.912;2022-12-07T01:00:04;100934.72;;;-0.06;100.00
57668;BME280;43499;52.366;12.912;2022-12-07T01:01:07;100989.34;;;0.25;100.00
57668;BME280;43499;52.366;12.912;2022-12-07T01:02:08;100978.09;;;0.17;100.00
57668;BME280;43499;52.366;12.912;2022-12-07T01:03:11;100980.28;;;0.21;100.00
57668;BME280;43499;52.366;12.912;2022-12-07T01:04:12;100955.31;;;0.07;100.00
57668;BME280;43499;52.366;12.912;2022-12-07T01:05:13;100922.91;;;-0.11;100.00
57668;BME280;43499;52.366;12.912;2022-12-07T01:06:19;100983.25;;;0.17;100.00
57668;BME280;43499;52.366;12.912;2022-12-07T01:07:20;100928.97;;;-0.10;100.00
57668;BME280;43499;52.366;12.912;2022-12-07T01:08:23;100971.56;;;0.13;100.00
57668;BME280;43499;52.366;12.912;2022-12-07T01:09:24;100958.44;;;0.05;100.00
57668;BME280;43499;52.366;12.912;2022-12-07T01:10:26;100963.47;;;0.10;100.00
57668;BME280;43499;52.366;12.912;2022-12-07T01:11:28;100981.91;;;0.13;100.00
57668;BME280;43499;52.366;12.912;2022-12-07T01:12:30;100956.00;;;-0.01;100.00
57668;BME280;43499;52.366;12.912;2022-12-07T01:13:33;100907.44;;;-0.31;100.00
57668;BME280;43499;52.366;12.912;2022-12-07T01:14:34;100969.50;;;0.04;100.00
57668;BME280;43499;52.366;12.912;2022-12-07T01:15:39;100977.03;;;0.02;100.00
57668;BME280;43499;52.366;12.912;2022-12-07T01:16:40;100970.78;;;0.00;100.00
57668;BME280;43499;52.366;12.912;2022-12-07T01:17:41;100904.47;;;-0.34;100.00
57668;BME280;43499;52.366;12.912;2022-12-07T01:18:45;100947.44;;;-0.14;100.00
57668;BME280;43499;52.366;12.912;2022-12-07T01:19:47;100933.28;;;-0.31;100.00
57668;BME280;43499;52.366;12.912;2022-12-07T01:21:00;100955.38;;;-0.13;100.00
57668;BME280;43499;52.366;12.912;2022-12-07T01:22:01;100958.13;;;-0.11;100.00
57668;BME280;43499;52.366;12.912;2022-12-07T01:23:03;100960.84;;;-0.17;100.00
57668;BME280;43499;52.366;12.912;2022-12-07T01:24:07;100950.50;;;-0.24;100.00
57668;BME280;43499;52.366;12.912;2022-12-07T01:25:09;100963.09;;;-0.20;100.00
57668;BME280;43499;52.366;12.912;2022-12-07T01:26:13;100948.09;;;-0.23;100.00
57668;BME280;43499;52.366;12.912;2022-12-07T01:27:15;100948.09;;;-0.23;100.00
57668;BME280;43499;52.366;12.912;2022-12-07T01:28:16;100946.19;;;-0.31;100.00
57668;BME280;43499;52.366;12.912;2022-12-07T01:29:17;100959.22;;;-0.17;100.00
57668;BME280;43499;52.366;12.912;2022-12-07T01:30:18;100921.59;;;-0.42;100.00
57668;BME280;43499;52.366;12.912;2022-12-07T01:31:21;100966.97;;;-0.17;100.00
57668;BME280;43499;52.366;12.912;2022-12-07T01:32:22;100922.19;;;-0.37;100.00
57668;BME280;43499;52.366;12.912;2022-12-07T01:33:24;100959.94;;;-0.18;100.00
57668;BME280;43499;52.366;12.912;2022-12-07T01:34:25;100938.44;;;-0.31;100.00
57668;BME280;43499;52.366;12.912;2022-12-07T01:35:26;100941.44;;;-0.28;100.00
57668;BME280;43499;52.366;12.912;2022-12-07T01:36:29;100907.97;;;-0.41;100.00
57668;BME280;43499;52.366;12.912;2022-12-07T01:37:35;100952.06;;;-0.12;100.00
57668;BME280;43499;52.366;12.912;2022-12-07T01:38:36;100905.16;;;-0.42;100.00
57668;BME280;43499;52.366;12.912;2022-12-07T01:39:38;100945.75;;;-0.14;100.00
57668;BME280;43499;52.366;12.912;2022-12-07T01:40:39;100953.72;;;-0.12;100.00
57668;BME280;43499;52.366;12.912;2022-12-07T01:41:40;100908.91;;;-0.33;100.00
57668;BME280;43499;52.366;12.912;2022-12-07T01:42:43;100875.59;;;-0.52;100.00
57668;BME280;43499;52.366;12.912;2022-12-07T01:45:38;100942.28;;;-0.07;100.00
57668;BME280;43499;52.366;12.912;2022-12-07T01:46:41;100945.06;;;-0.06;100.00
57668;BME280;43499;52.366;12.912;2022-12-07T01:47:44;100925.09;;;-0.14;100.00
57668;BME280;43499;52.366;12.912;2022-12-07T01:48:46;100892.66;;;-0.39;100.00
57668;BME280;43499;52.366;12.912;2022-12-07T01:49:51;100938.72;;;-0.15;100.00
57668;BME280;43499;52.366;12.912;2022-12-07T01:50:53;100887.72;;;-0.30;100.00
57668;BME280;43499;52.366;12.912;2022-12-07T01:52:16;100934.94;;;-0.04;100.00
57668;BME280;43499;52.366;12.912;2022-12-07T01:53:19;100886.22;;;-0.36;100.00
57668;BME280;43499;52.366;12.912;2022-12-07T01:54:20;100877.56;;;-0.36;100.00
57668;BME280;43499;52.366;12.912;2022-12-07T01:55:22;100911.41;;;-0.20;100.00
57668;BME280;43499;52.366;12.912;2022-12-07T01:56:26;100902.53;;;-0.22;100.00
57668;BME280;43499;52.366;12.912;2022-12-07T01:57:29;100880.50;;;-0.33;100.00
57668;BME280;43499;52.366;12.912;2022-12-07T01:58:31;100887.72;;;-0.30;100.00
57668;BME280;43499;52.366;12.912;2022-12-07T01:59:33;100890.50;;;-0.29;100.00
57668;BME280;43499;52.366;12.912;2022-12-07T02:00:34;100921.44;;;-0.09;100.00
57668;BME280;43499;52.366;12.912;2022-12-07T02:01:35;100914.59;;;-0.08;100.00
57668;BME280;43499;52.366;12.912;2022-12-07T02:02:44;100902.78;;;-0.13;100.00
57668;BME280;43499;52.366;12.912;2022-12-07T02:03:46;100907.94;;;-0.13;100.00
57668;BME280;43499;52.366;12.912;2022-12-07T02:04:47;100880.34;;;-0.27;100.00
57668;BME280;43499;52.366;12.912;2022-12-07T02:05:50;100877.97;;;-0.26;100.00
57668;BME280;43499;52.366;12.912;2022-12-07T02:06:53;100899.63;;;-0.18;100.00
57668;BME280;43499;52.366;12.912;2022-12-07T02:07:56;100885.38;;;-0.22;100.00
57668;BME280;43499;52.366;12.912;2022-12-07T02:08:58;100876.81;;;-0.35;100.00
57668;BME280;43499;52.366;12.912;2022-12-07T02:10:16;100904.09;;;-0.10;100.00
57668;BME280;43499;52.366;12.912;2022-12-07T02:11:18;100888.34;;;-0.19;100.00
57668;BME280;43499;52.366;12.912;2022-12-07T02:12:20;100932.34;;;-0.04;100.00
57668;BME280;43499;52.366;12.912;2022-12-07T02:13:26;100863.53;;;-0.31;100.00
57668;BME280;43499;52.366;12.912;2022-12-07T02:14:29;100909.66;;;-0.07;100.00
57668;BME280;43499;52.366;12.912;2022-12-07T02:16:57;100885.38;;;-0.22;100.00
57668;BME280;43499;52.366;12.912;2022-12-07T02:18:10;100856.34;;;-0.34;100.00
57668;BME280;43499;52.366;12.912;2022-12-07T02:19:41;100907.63;;;-0.02;100.00
57668;BME280;43499;52.366;12.912;2022-12-07T02:21:07;100895.78;;;-0.07;100.00
57668;BME280;43499;52.366;12.912;2022-12-07T02:25:30;100905.41;;;0.01;100.00
57668;BME280;43499;52.366;12.912;2022-12-07T02:27:46;100872.84;;;-0.19;100.00
57668;BME280;43499;52.366;12.912;2022-12-07T02:29:10;100862.47;;;-0.26;100.00
57668;BME280;43499;52.366;12.912;2022-12-07T02:30:19;100897.09;;;-0.04;100.00
57668;BME280;43499;52.366;12.912;2022-12-07T02:31:21;100851.22;;;-0.26;100.00
57668;BME280;43499;52.366;12.912;2022-12-07T02:32:56;100846.94;;;-0.33;100.00
57668;BME280;43499;52.366;12.912;2022-12-07T02:34:19;100886.34;;;-0.14;100.00
57668;BME280;43499;52.366;12.912;2022-12-07T02:35:28;100851.34;;;-0.32;100.00
57668;BME280;43499;52.366;12.912;2022-12-07T02:36:38;100882.63;;;-0.16;100.00
57668;BME280;43499;52.366;12.912;2022-12-07T02:38:09;100871.19;;;-0.18;100.00
57668;BME280;43499;52.366;12.912;2022-12-07T02:39:14;100854.88;;;-0.32;100.00
57668;BME280;43499;52.366;12.912;2022-12-07T02:40:33;100891.91;;;-0.11;100.00
57668;BME280;43499;52.366;12.912;2022-12-07T02:41:39;100819.91;;;-0.50;100.00
57668;BME280;43499;52.366;12.912;2022-12-07T02:42:48;100846.75;;;-0.35;100.00
57668;BME280;43499;52.366;12.912;2022-12-07T02:43:57;100861.75;;;-0.25;100.00
57668;BME280;43499;52.366;12.912;2022-12-07T02:45:01;100829.69;;;-0.47;100.00
57668;BME280;43499;52.366;12.912;2022-12-07T02:46:09;100865.25;;;-0.24;100.00
57668;BME280;43499;52.366;12.912;2022-12-07T02:47:14;100853.59;;;-0.28;100.00
57668;BME280;43499;52.366;12.912;2022-12-07T02:48:21;100872.50;;;-0.14;100.00
57668;BME280;43499;52.366;12.912;2022-12-07T02:49:24;100812.16;;;-0.50;100.00
57668;BME280;43499;52.366;12.912;2022-12-07T02:50:27;100838.66;;;-0.30;100.00
57668;BME280;43499;52.366;12.912;2022-12-07T02:51:32;100876.22;;;-0.12;100.00
57668;BME280;43499;52.366;12.912;2022-12-07T02:52:33;100866.59;;;-0.13;100.00
57668;BME280;43499;52.366;12.912;2022-12-07T02:53:38;100869.38;;;-0.12;100.00
57668;BME280;43499;52.366;12.912;2022-12-07T02:54:40;100815.50;;;-0.43;100.00
57668;BME280;43499;52.366;12.912;2022-12-07T02:55:41;100819.41;;;-0.40;100.00
57668;BME280;43499;52.366;12.912;2022-12-07T02:58:18;100819.84;;;-0.29;100.00
57668;BME280;43499;52.366;12.912;2022-12-07T02:59:36;100855.72;;;-0.11;100.00
57668;BME280;43499;52.366;12.912;2022-12-07T03:00:54;100828.53;;;-0.22;100.00
57668;BME280;43499;52.366;12.912;2022-12-07T03:03:22;100848.88;;;-0.10;100.00
57668;BME280;43499;52.366;12.912;2022-12-07T03:04:42;100843.53;;;-0.12;100.00
57668;BME280;43499;52.366;12.912;2022-12-07T03:07:18;100827.81;;;-0.21;100.00
57668;BME280;43499;52.366;12.912;2022-12-07T03:08:44;100808.66;;;-0.16;100.00
57668;BME280;43499;52.366;12.912;2022-12-07T03:11:02;100819.38;;;-0.05;100.00
57668;BME280;43499;52.366;12.912;2022-12-07T03:12:13;100829.56;;;0.01;100.00
57668;BME280;43499;52.366;12.912;2022-12-07T03:13:32;100809.03;;;-0.12;100.00
57668;BME280;43499;52.366;12.912;2022-12-07T03:14:40;100829.72;;;-0.05;100.00
57668;BME280;43499;52.366;12.912;2022-12-07T03:15:52;100820.91;;;0.00;100.00
57668;BME280;43499;52.366;12.912;2022-12-07T03:17:07;100817.75;;;0.03;100.00
57668;BME280;43499;52.366;12.912;2022-12-07T03:18:13;100785.94;;;-0.18;100.00
57668;BME280;43499;52.366;12.912;2022-12-07T03:19:19;100817.38;;;0.07;100.00
57668;BME280;43499;52.366;12.912;2022-12-07T03:20:22;100772.44;;;-0.23;100.00
57668;BME280;43499;52.366;12.912;2022-12-07T03:21:27;100816.66;;;0.08;100.00
57668;BME280;43499;52.366;12.912;2022-12-07T03:22:34;100790.41;;;-0.03;100.00
57668;BME280;43499;52.366;12.912;2022-12-07T03:23:38;100800.22;;;0.00;100.00
57668;BME280;43499;52.366;12.912;2022-12-07T03:24:44;100804.47;;;0.07;100.00
57668;BME280;43499;52.366;12.912;2022-12-07T03:25:49;100765.47;;;-0.17;100.00
57668;BME280;43499;52.366;12.912;2022-12-07T03:27:17;100771.03;;;-0.06;100.00
57668;BME280;43499;52.366;12.912;2022-12-07T03:28:22;100793.22;;;0.06;100.00
57668;BME280;43499;52.366;12.912;2022-12-07T03:29:31;100774.53;;;-0.06;100.00
57668;BME280;43499;52.366;12.912;2022-12-07T03:30:48;100781.19;;;-0.01;100.00
57668;BME280;43499;52.366;12.912;2022-12-07T03:31:56;100801.16;;;0.08;100.00
57668;BME280;43499;52.366;12.912;2022-12-07T03:33:19;100801.91;;;0.14;100.00
57668;BME280;43499;52.366;12.912;2022-12-07T03:34:29;100754.94;;;-0.18;100.00
57668;BME280;43499;52.366;12.912;2022-12-07T03:36:00;100771.94;;;-0.06;100.00
57668;BME280;43499;52.366;12.912;2022-12-07T03:37:08;100785.47;;;0.06;100.00
57668;BME280;43499;52.366;12.912;2022-12-07T03:38:22;100772.31;;;-0.03;100.00
57668;BME280;43499;52.366;12.912;2022-12-07T03:39:26;100780.13;;;0.12;100.00
57668;BME280;43499;52.366;12.912;2022-12-07T03:40:33;100793.25;;;0.21;100.00
57668;BME280;43499;52.366;12.912;2022-12-07T03:41:37;100750.19;;;-0.01;100.00
57668;BME280;43499;52.366;12.912;2022-12-07T03:42:39;100776.97;;;0.14;100.00
57668;BME280;43499;52.366;12.912;2022-12-07T03:43:41;100725.41;;;-0.13;100.00
57668;BME280;43499;52.366;12.912;2022-12-07T03:44:43;100744.84;;;-0.02;100.00
57668;BME280;43499;52.366;12.912;2022-12-07T03:45:58;100748.16;;;0.04;100.00
57668;BME280;43499;52.366;12.912;2022-12-07T03:47:12;100725.06;;;-0.09;100.00
57668;BME280;43499;52.366;12.912;2022-12-07T03:48:25;100755.00;;;0.11;100.00
57668;BME280;43499;52.366;12.912;2022-12-07T03:51:17;100721.94;;;-0.06;100.00
57668;BME280;43499;52.366;12.912;2022-12-07T03:52:31;100785.69;;;0.29;100.00
57668;BME280;43499;52.366;12.912;2022-12-07T03:53:45;100781.09;;;0.34;100.00
57668;BME280;43499;52.366;12.912;2022-12-07T03:56:05;100730.44;;;0.07;100.00
57668;BME280;43499;52.366;12.912;2022-12-07T03:57:07;100726.41;;;0.09;100.00
57668;BME280;43499;52.366;12.912;2022-12-07T03:58:15;100766.69;;;0.29;100.00
57668;BME280;43499;52.366;12.912;2022-12-07T03:59:18;100745.22;;;0.15;100.00
57668;BME280;43499;52.366;12.912;2022-12-07T04:00:20;100726.56;;;0.11;100.00
57668;BME280;43499;52.366;12.912;2022-12-07T04:01:22;100725.13;;;0.13;100.00
57668;BME280;43499;52.366;12.912;2022-12-07T04:02:26;100711.41;;;0.07;100.00
57668;BME280;43499;52.366;12.912;2022-12-07T04:03:28;100698.84;;;-0.05;100.00
57668;BME280;43499;52.366;12.912;2022-12-07T04:04:29;100724.38;;;0.14;100.00
57668;BME280;43499;52.366;12.912;2022-12-07T04:05:40;100762.25;;;0.35;100.00
57668;BME280;43499;52.366;12.912;2022-12-07T04:06:41;100672.44;;;-0.09;100.00
57668;BME280;43499;52.366;12.912;2022-12-07T04:07:42;100750.44;;;0.37;100.00
57668;BME280;43499;52.366;12.912;2022-12-07T04:08:43;100700.19;;;0.06;100.00
57668;BME280;43499;52.366;12.912;2022-12-07T04:09:44;100735.28;;;0.26;100.00
57668;BME280;43499;52.366;12.912;2022-12-07T04:10:45;100699.44;;;0.07;100.00
57668;BME280;43499;52.366;12.912;2022-12-07T04:11:46;100738.06;;;0.35;100.00
57668;BME280;43499;52.366;12.912;2022-12-07T04:12:47;100725.09;;;0.20;100.00
57668;BME280;43499;52.366;12.912;2022-12-07T04:13:48;100721.22;;;0.17;100.00
57668;BME280;43499;52.366;12.912;2022-12-07T04:15:08;100746.38;;;0.39;100.00
57668;BME280;43499;52.366;12.912;2022-12-07T04:16:13;100742.88;;;0.39;100.00
57668;BME280;43499;52.366;12.912;2022-12-07T04:17:14;100700.00;;;0.12;100.00
57668;BME280;43499;52.366;12.912;2022-12-07T04:18:19;100693.91;;;0.11;100.00
57668;BME280;43499;52.366;12.912;2022-12-07T04:19:23;100732.16;;;0.36;100.00
57668;BME280;43499;52.366;12.912;2022-12-07T04:20:24;100740.09;;;0.37;100.00
57668;BME280;43499;52.366;12.912;2022-12-07T04:21:25;100706.28;;;0.21;100.00
57668;BME280;43499;52.366;12.912;2022-12-07T04:22:27;100696.13;;;0.15;100.00
57668;BME280;43499;52.366;12.912;2022-12-07T04:23:28;100664.91;;;0.07;100.00
57668;BME280;43499;52.366;12.912;2022-12-07T04:24:29;100742.50;;;0.43;100.00
57668;BME280;43499;52.366;12.912;2022-12-07T04:25:30;100719.97;;;0.35;100.00
57668;BME280;43499;52.366;12.912;2022-12-07T04:26:31;100716.25;;;0.33;100.00
57668;BME280;43499;52.366;12.912;2022-12-07T04:27:32;100701.69;;;0.33;100.00
57668;BME280;43499;52.366;12.912;2022-12-07T04:28:33;100674.53;;;0.15;100.00
57668;BME280;43499;52.366;12.912;2022-12-07T04:29:34;100697.59;;;0.28;100.00
57668;BME280;43499;52.366;12.912;2022-12-07T04:30:35;100706.47;;;0.30;100.00
57668;BME280;43499;52.366;12.912;2022-12-07T04:31:36;100683.03;;;0.14;100.00
57668;BME280;43499;52.366;12.912;2022-12-07T04:32:37;100700.03;;;0.26;100.00
57668;BME280;43499;52.366;12.912;2022-12-07T04:33:38;100737.50;;;0.52;100.00
57668;BME280;43499;52.366;12.912;2022-12-07T04:34:40;100714.78;;;0.35;100.00
57668;BME280;43499;52.366;12.912;2022-12-07T04:35:44;100683.97;;;0.22;100.00
57668;BME280;43499;52.366;12.912;2022-12-07T04:36:45;100735.28;;;0.48;100.00
57668;BME280;43499;52.366;12.912;2022-12-07T04:37:47;100735.09;;;0.53;100.00
57668;BME280;43499;52.366;12.912;2022-12-07T04:38:53;100713.13;;;0.42;100.00
57668;BME280;43499;52.366;12.912;2022-12-07T04:39:54;100673.41;;;0.20;100.00
57668;BME280;43499;52.366;12.912;2022-12-07T04:40:55;100683.97;;;0.22;100.00
57668;BME280;43499;52.366;12.912;2022-12-07T04:41:57;100733.63;;;0.55;100.00
57668;BME280;43499;52.366;12.912;2022-12-07T04:42:59;100683.22;;;0.23;100.00
57668;BME280;43499;52.366;12.912;2022-12-07T04:44:02;100711.28;;;0.41;100.00
57668;BME280;43499;52.366;12.912;2022-12-07T04:45:04;100700.00;;;0.41;100.00
57668;BME280;43499;52.366;12.912;2022-12-07T04:46:05;100732.91;;;0.56;100.00
57668;BME280;43499;52.366;12.912;2022-12-07T04:47:06;100725.88;;;0.55;100.00
57668;BME280;43499;52.366;12.912;2022-12-07T04:48:07;100683.03;;;0.28;100.00
57668;BME280;43499;52.366;12.912;2022-12-07T04:49:09;100723.13;;;0.54;100.00
57668;BME280;43499;52.366;12.912;2022-12-07T04:50:10;100698.34;;;0.41;100.00
57668;BME280;43499;52.366;12.912;2022-12-07T04:51:24;100657.72;;;0.26;100.00
57668;BME280;43499;52.366;12.912;2022-12-07T04:52:25;100711.66;;;0.52;100.00
57668;BME280;43499;52.366;12.912;2022-12-07T04:53:26;100650.34;;;0.22;100.00
57668;BME280;43499;52.366;12.912;2022-12-07T04:54:29;100662.53;;;0.30;100.00
57668;BME280;43499;52.366;12.912;2022-12-07T04:55:30;100660.84;;;0.30;100.00
57668;BME280;43499;52.366;12.912;2022-12-07T04:56:32;100725.69;;;0.68;100.00
57668;BME280;43499;52.366;12.912;2022-12-07T04:57:33;100715.34;;;0.61;100.00
57668;BME280;43499;52.366;12.912;2022-12-07T04:58:34;100712.38;;;0.65;100.00
57668;BME280;43499;52.366;12.912;2022-12-07T04:59:35;100666.97;;;0.45;100.00
57668;BME280;43499;52.366;12.912;2022-12-07T05:00:36;100633.91;;;0.36;100.00
57668;BME280;43499;52.366;12.912;2022-12-07T05:01:37;100724.75;;;0.82;100.00
57668;BME280;43499;52.366;12.912;2022-12-07T05:02:38;100713.09;;;0.86;100.00
57668;BME280;43499;52.366;12.912;2022-12-07T05:03:40;100695.00;;;0.71;100.00
57668;BME280;43499;52.366;12.912;2022-12-07T05:04:41;100682.47;;;0.67;100.00
57668;BME280;43499;52.366;12.912;2022-12-07T05:05:42;100709.41;;;0.84;100.00
57668;BME280;43499;52.366;12.912;2022-12-07T05:06:43;100702.00;;;0.87;100.00
57668;BME280;43499;52.366;12.912;2022-12-07T05:07:44;100714.75;;;0.92;100.00
57668;BME280;43499;52.366;12.912;2022-12-07T05:08:45;100701.28;;;0.88;100.00
57668;BME280;43499;52.366;12.912;2022-12-07T05:09:46;100710.84;;;0.96;100.00
57668;BME280;43499;52.366;12.912;2022-12-07T05:10:49;100713.09;;;1.00;100.00
57668;BME280;43499;52.366;12.912;2022-12-07T05:11:50;100675.22;;;0.79;100.00
57668;BME280;43499;52.366;12.912;2022-12-07T05:12:51;100705.69;;;0.96;100.00
57668;BME280;43499;52.366;12.912;2022-12-07T05:13:52;100706.75;;;1.05;100.00
57668;BME280;43499;52.366;12.912;2022-12-07T05:14:53;100645.69;;;0.70;100.00
57668;BME280;43499;52.366;12.912;2022-12-07T05:15:54;100690.91;;;1.02;100.00
57668;BME280;43499;52.366;12.912;2022-12-07T05:16:55;100692.75;;;1.03;100.00
57668;BME280;43499;52.366;12.912;2022-12-07T05:17:56;100701.97;;;1.08;100.00
57668;BME280;43499;52.366;12.912;2022-12-07T05:18:57;100699.75;;;1.12;100.00
57668;BME280;43499;52.366;12.912;2022-12-07T05:19:58;100698.25;;;1.14;100.00
57668;BME280;43499;52.366;12.912;2022-12-07T05:20:59;100672.78;;;0.95;100.00
57668;BME280;43499;52.366;12.912;2022-12-07T05:22:01;100679.81;;;1.03;100.00
57668;BME280;43499;52.366;12.912;2022-12-07T05:23:02;100673.31;;;1.00;100.00
57668;BME280;43499;52.366;12.912;2022-12-07T05:24:03;100657.25;;;0.95;100.00
57668;BME280;43499;52.366;12.912;2022-12-07T05:25:04;100657.78;;;1.00;100.00
57668;BME280;43499;52.366;12.912;2022-12-07T05:26:05;100661.31;;;1.00;100.00
57668;BME280;43499;52.366;12.912;2022-12-07T05:27:06;100680.13;;;1.14;100.00
57668;BME280;43499;52.366;12.912;2022-12-07T05:28:07;100682.16;;;1.16;100.00
57668;BME280;43499;52.366;12.912;2022-12-07T05:29:12;100628.25;;;0.90;100.00
57668;BME280;43499;52.366;12.912;2022-12-07T05:30:13;100629.72;;;0.88;100.00
57668;BME280;43499;52.366;12.912;2022-12-07T05:31:14;100691.94;;;1.26;100.00
57668;BME280;43499;52.366;12.912;2022-12-07T05:32:15;100645.03;;;1.01;100.00
57668;BME280;43499;52.366;12.912;2022-12-07T05:33:16;100638.03;;;1.00;100.00
57668;BME280;43499;52.366;12.912;2022-12-07T05:34:17;100663.47;;;1.19;100.00
57668;BME280;43499;52.366;12.912;2022-12-07T05:35:18;100618.44;;;0.95;100.00
57668;BME280;43499;52.366;12.912;2022-12-07T05:36:20;100651.66;;;1.14;100.00
57668;BME280;43499;52.366;12.912;2022-12-07T05:37:21;100638.72;;;1.06;100.00
57668;BME280;43499;52.366;12.912;2022-12-07T05:38:22;100681.91;;;1.29;100.00
57668;BME280;43499;52.366;12.912;2022-12-07T05:39:23;100636.72;;;1.04;100.00
57668;BME280;43499;52.366;12.912;2022-12-07T05:40:24;100686.88;;;1.35;100.00
57668;BME280;43499;52.366;12.912;2022-12-07T05:41:25;100670.25;;;1.33;100.00
57668;BME280;43499;52.366;12.912;2022-12-07T05:42:53;100677.63;;;1.37;100.00
57668;BME280;43499;52.366;12.912;2022-12-07T05:43:54;100635.56;;;1.16;100.00
57668;BME280;43499;52.366;12.912;2022-12-07T05:44:55;100653.25;;;1.28;100.00
57668;BME280;43499;52.366;12.912;2022-12-07T05:45:56;100672.81;;;1.40;100.00
57668;BME280;43499;52.366;12.912;2022-12-07T05:46:57;100674.31;;;1.38;100.00